sensor_id;sensor_type;location;lat;lon;timestamp;P1;durP1;ratioP1;P2;durP2;ratioP2
6751;SDS011;3413;47.680;9.166;2024-02-14T00:03:35;8.30;;;2.33;;
6751;SDS011;3413;47.680;9.166;2024-02-14T00:08:39;3.93;;;2.30;;
6751;SDS011;3413;47.680;9.166;2024-02-14T00:13:41;4.37;;;2.00;;
6751;SDS011;3413;47.680;9.166;2024-02-14T00:18:43;4.73;;;2.73;;
6751;SDS011;3413;47.680;9.166;2024-02-14T00:23:45;3.87;;;2.30;;
6751;SDS011;3413;47.680;9.166;2024-02-14T00:28:48;5.60;;;2.60;;
6751;SDS011;3413;47.680;9.166;2024-02-14T00:33:50;11.70;;;4.30;;
6751;SDS011;3413;47.680;9.166;2024-02-14T00:38:52;44.07;;;8.90;;
6751;SDS011;3413;47.680;9.166;2024-02-14T00:43:54;9.53;;;2.90;;
6751;SDS011;3413;47.680;9.166;2024-02-14T00:48:58;39.17;;;7.20;;
6751;SDS011;3413;47.680;9.166;2024-02-14T00:54:01;31.83;;;7.90;;
6751;SDS011;3413;47.680;9.166;2024-02-14T00:59:03;11.23;;;4.43;;
6751;SDS011;3413;47.680;9.166;2024-02-14T01:04:05;11.57;;;4.20;;
6751;SDS011;3413;47.680;9.166;2024-02-14T01:09:07;9.00;;;3.30;;
6751;SDS011;3413;47.680;9.166;2024-02-14T01:14:10;10.97;;;2.70;;
6751;SDS011;3413;47.680;9.166;2024-02-14T01:19:13;4.07;;;2.33;;
6751;SDS011;3413;47.680;9.166;2024-02-14T01:24:16;5.43;;;2.30;;
6751;SDS011;3413;47.680;9.166;2024-02-14T01:29:18;12.30;;;2.80;;
6751;SDS011;3413;47.680;9.166;2024-02-14T01:34:20;7.33;;;2.57;;
6751;SDS011;3413;47.680;9.166;2024-02-14T01:39:22;4.93;;;3.27;;
6751;SDS011;3413;47.680;9.166;2024-02-14T01:44:24;6.97;;;3.20;;
6751;SDS011;3413;47.680;9.166;2024-02-14T01:49:26;8.43;;;3.47;;
6751;SDS011;3413;47.680;9.166;2024-02-14T01:54:30;10.23;;;3.37;;
6751;SDS011;3413;47.680;9.166;2024-02-14T01:59:33;5.87;;;2.90;;
6751;SDS011;3413;47.680;9.166;2024-02-14T02:04:39;8.20;;;3.13;;
6751;SDS011;3413;47.680;9.166;2024-02-14T02:09:41;6.53;;;2.80;;
6751;SDS011;3413;47.680;9.166;2024-02-14T02:14:42;7.83;;;3.00;;
6751;SDS011;3413;47.680;9.166;2024-02-14T02:19:44;5.00;;;3.03;;
6751;SDS011;3413;47.680;9.166;2024-02-14T02:24:46;9.40;;;3.50;;
6751;SDS011;3413;47.680;9.166;2024-02-14T02:29:48;9.97;;;3.33;;
6751;SDS011;3413;47.680;9.166;2024-02-14T02:34:51;6.03;;;3.50;;
6751;SDS011;3413;47.680;9.166;2024-02-14T02:39:52;7.93;;;2.97;;
6751;SDS011;3413;47.680;9.166;2024-02-14T02:44:55;9.90;;;3.37;;
6751;SDS011;3413;47.680;9.166;2024-02-14T02:49:56;7.63;;;4.17;;
6751;SDS011;3413;47.680;9.166;2024-02-14T02:55:02;8.90;;;3.53;;
6751;SDS011;3413;47.680;9.166;2024-02-14T03:00:06;5.20;;;3.10;;
6751;SDS011;3413;47.680;9.166;2024-02-14T03:05:09;7.07;;;3.03;;
6751;SDS011;3413;47.680;9.166;2024-02-14T03:10:19;4.63;;;2.67;;
6751;SDS011;3413;47.680;9.166;2024-02-14T03:15:22;7.00;;;3.17;;
6751;SDS011;3413;47.680;9.166;2024-02-14T03:20:26;4.83;;;2.70;;
6751;SDS011;3413;47.680;9.166;2024-02-14T03:25:30;8.10;;;3.50;;
6751;SDS011;3413;47.680;9.166;2024-02-14T03:30:32;6.90;;;3.30;;
6751;SDS011;3413;47.680;9.166;2024-02-14T03:35:35;7.77;;;2.87;;
6751;SDS011;3413;47.680;9.166;2024-02-14T03:40:37;6.90;;;2.80;;
6751;SDS011;3413;47.680;9.166;2024-02-14T03:45:39;5.07;;;3.00;;
6751;SDS011;3413;47.680;9.166;2024-02-14T03:50:41;11.57;;;3.67;;
6751;SDS011;3413;47.680;9.166;2024-02-14T03:55:44;5.20;;;2.97;;
6751;SDS011;3413;47.680;9.166;2024-02-14T04:00:46;4.03;;;2.60;;
6751;SDS011;3413;47.680;9.166;2024-02-14T04:05:50;6.13;;;3.10;;
6751;SDS011;3413;47.680;9.166;2024-02-14T04:10:52;5.93;;;3.13;;
6751;SDS011;3413;47.680;9.166;2024-02-14T04:15:55;5.67;;;2.90;;
6751;SDS011;3413;47.680;9.166;2024-02-14T04:20:57;6.50;;;2.70;;
6751;SDS011;3413;47.680;9.166;2024-02-14T04:25:59;6.87;;;2.90;;
6751;SDS011;3413;47.680;9.166;2024-02-14T04:31:01;5.87;;;2.60;;
6751;SDS011;3413;47.680;9.166;2024-02-14T04:36:03;10.83;;;3.10;;
6751;SDS011;3413;47.680;9.166;2024-02-14T04:41:07;3.73;;;2.30;;
6751;SDS011;3413;47.680;9.166;2024-02-14T04:46:11;4.67;;;2.37;;
6751;SDS011;3413;47.680;9.166;2024-02-14T04:51:13;7.33;;;2.50;;
6751;SDS011;3413;47.680;9.166;2024-02-14T04:56:15;9.70;;;2.70;;
6751;SDS011;3413;47.680;9.166;2024-02-14T05:01:42;4.90;;;2.50;;
6751;SDS011;3413;47.680;9.166;2024-02-14T05:06:44;7.10;;;2.90;;
6751;SDS011;3413;47.680;9.166;2024-02-14T05:11:46;5.20;;;2.70;;
6751;SDS011;3413;47.680;9.166;2024-02-14T05:16:48;7.00;;;2.67;;
6751;SDS011;3413;47.680;9.166;2024-02-14T05:21:50;5.50;;;2.87;;
6751;SDS011;3413;47.680;9.166;2024-02-14T05:26:52;15.13;;;3.40;;
6751;SDS011;3413;47.680;9.166;2024-02-14T05:31:54;18.90;;;5.20;;
6751;SDS011;3413;47.680;9.166;2024-02-14T05:36:56;10.47;;;3.33;;
6751;SDS011;3413;47.680;9.166;2024-02-14T05:41:58;5.70;;;2.90;;
6751;SDS011;3413;47.680;9.166;2024-02-14T05:47:00;6.67;;;3.30;;
6751;SDS011;3413;47.680;9.166;2024-02-14T05:52:02;6.93;;;3.20;;
6751;SDS011;3413;47.680;9.166;2024-02-14T05:57:05;6.63;;;2.60;;
6751;SDS011;3413;47.680;9.166;2024-02-14T06:02:07;7.53;;;2.33;;
6751;SDS011;3413;47.680;9.166;2024-02-14T06:07:11;6.30;;;2.10;;
6751;SDS011;3413;47.680;9.166;2024-02-14T06:12:13;11.30;;;3.57;;
6751;SDS011;3413;47.680;9.166;2024-02-14T06:17:15;7.40;;;2.93;;
6751;SDS011;3413;47.680;9.166;2024-02-14T06:22:17;10.30;;;3.57;;
6751;SDS011;3413;47.680;9.166;2024-02-14T06:27:19;11.80;;;3.60;;
6751;SDS011;3413;47.680;9.166;2024-02-14T06:32:21;19.23;;;5.80;;
6751;SDS011;3413;47.680;9.166;2024-02-14T06:37:23;31.43;;;7.90;;
6751;SDS011;3413;47.680;9.166;2024-02-14T06:42:25;25.67;;;6.20;;
6751;SDS011;3413;47.680;9.166;2024-02-14T06:47:28;13.13;;;4.67;;
6751;SDS011;3413;47.680;9.166;2024-02-14T06:52:31;8.37;;;4.40;;
6751;SDS011;3413;47.680;9.166;2024-02-14T06:57:33;16.20;;;4.20;;
6751;SDS011;3413;47.680;9.166;2024-02-14T07:02:35;12.60;;;3.60;;
6751;SDS011;3413;47.680;9.166;2024-02-14T07:07:37;12.80;;;3.70;;
6751;SDS011;3413;47.680;9.166;2024-02-14T07:12:40;4.40;;;2.67;;
6751;SDS011;3413;47.680;9.166;2024-02-14T07:17:42;10.33;;;4.60;;
6751;SDS011;3413;47.680;9.166;2024-02-14T07:22:44;9.23;;;3.93;;
6751;SDS011;3413;47.680;9.166;2024-02-14T07:27:49;6.50;;;2.80;;
6751;SDS011;3413;47.680;9.166;2024-02-14T07:32:51;9.77;;;3.30;;
6751;SDS011;3413;47.680;9.166;2024-02-14T07:37:53;9.20;;;4.20;;
6751;SDS011;3413;47.680;9.166;2024-02-14T07:42:55;6.47;;;3.70;;
6751;SDS011;3413;47.680;9.166;2024-02-14T07:47:57;7.00;;;4.00;;
6751;SDS011;3413;47.680;9.166;2024-02-14T07:52:59;8.33;;;3.20;;
6751;SDS011;3413;47.680;9.166;2024-02-14T07:58:01;4.60;;;2.93;;
6751;SDS011;3413;47.680;9.166;2024-02-14T08:03:03;3.67;;;2.43;;
6751;SDS011;3413;47.680;9.166;2024-02-14T08:08:07;5.13;;;2.73;;
6751;SDS011;3413;47.680;9.166;2024-02-14T08:13:09;11.50;;;2.90;;
6751;SDS011;3413;47.680;9.166;2024-02-14T08:18:12;7.53;;;3.30;;
6751;SDS011;3413;47.680;9.166;2024-02-14T08:23:14;4.53;;;2.60;;
6751;SDS011;3413;47.680;9.166;2024-02-14T08:28:16;8.63;;;2.90;;
6751;SDS011;3413;47.680;9.166;2024-02-14T08:33:19;5.00;;;2.17;;
6751;SDS011;3413;47.680;9.166;2024-02-14T08:38:21;4.83;;;2.53;;
6751;SDS011;3413;47.680;9.166;2024-02-14T08:43:23;4.83;;;2.10;;
6751;SDS011;3413;47.680;9.166;2024-02-14T08:48:31;4.30;;;1.83;;
6751;SDS011;3413;47.680;9.166;2024-02-14T08:53:36;3.60;;;1.80;;
6751;SDS011;3413;47.680;9.166;2024-02-14T08:58:38;2.17;;;1.70;;
6751;SDS011;3413;47.680;9.166;2024-02-14T09:03:41;2.73;;;1.50;;
6751;SDS011;3413;47.680;9.166;2024-02-14T09:08:51;2.60;;;1.47;;
6751;SDS011;3413;47.680;9.166;2024-02-14T09:13:53;3.00;;;1.40;;
6751;SDS011;3413;47.680;9.166;2024-02-14T09:18:57;2.73;;;1.33;;
6751;SDS011;3413;47.680;9.166;2024-02-14T09:23:59;3.23;;;1.60;;
6751;SDS011;3413;47.680;9.166;2024-02-14T09:29:01;9.43;;;1.60;;
6751;SDS011;3413;47.680;9.166;2024-02-14T09:34:03;6.77;;;1.50;;
6751;SDS011;3413;47.680;9.166;2024-02-14T09:39:05;4.37;;;1.90;;
6751;SDS011;3413;47.680;9.166;2024-02-14T09:44:09;2.80;;;1.40;;
6751;SDS011;3413;47.680;9.166;2024-02-14T09:49:11;2.00;;;1.47;;
6751;SDS011;3413;47.680;9.166;2024-02-14T09:54:15;2.50;;;1.57;;
6751;SDS011;3413;47.680;9.166;2024-02-14T09:59:19;2.30;;;1.60;;
6751;SDS011;3413;47.680;9.166;2024-02-14T10:04:23;4.03;;;1.50;;
6751;SDS011;3413;47.680;9.166;2024-02-14T10:09:27;6.17;;;2.00;;
6751;SDS011;3413;47.680;9.166;2024-02-14T10:14:30;4.07;;;1.57;;
6751;SDS011;3413;47.680;9.166;2024-02-14T10:19:32;3.30;;;1.77;;
6751;SDS011;3413;47.680;9.166;2024-02-14T10:24:34;7.53;;;1.50;;
6751;SDS011;3413;47.680;9.166;2024-02-14T10:29:36;2.67;;;1.57;;
6751;SDS011;3413;47.680;9.166;2024-02-14T10:34:38;2.63;;;1.40;;
6751;SDS011;3413;47.680;9.166;2024-02-14T10:39:42;2.93;;;1.43;;
6751;SDS011;3413;47.680;9.166;2024-02-14T10:44:46;3.00;;;1.30;;
6751;SDS011;3413;47.680;9.166;2024-02-14T10:49:51;5.03;;;1.67;;
6751;SDS011;3413;47.680;9.166;2024-02-14T10:54:55;4.27;;;1.23;;
6751;SDS011;3413;47.680;9.166;2024-02-14T11:00:03;3.17;;;1.60;;
6751;SDS011;3413;47.680;9.166;2024-02-14T11:05:13;2.40;;;1.27;;
6751;SDS011;3413;47.680;9.166;2024-02-14T11:10:17;2.87;;;1.20;;
6751;SDS011;3413;47.680;9.166;2024-02-14T11:15:20;7.37;;;1.70;;
6751;SDS011;3413;47.680;9.166;2024-02-14T11:20:34;6.00;;;1.67;;
6751;SDS011;3413;47.680;9.166;2024-02-14T11:25:37;2.80;;;1.23;;
6751;SDS011;3413;47.680;9.166;2024-02-14T11:30:40;2.93;;;1.87;;
6751;SDS011;3413;47.680;9.166;2024-02-14T11:35:45;5.33;;;1.50;;
6751;SDS011;3413;47.680;9.166;2024-02-14T11:40:54;2.90;;;1.60;;
6751;SDS011;3413;47.680;9.166;2024-02-14T11:45:59;1.90;;;1.40;;
6751;SDS011;3413;47.680;9.166;2024-02-14T11:51:01;4.50;;;1.73;;
6751;SDS011;3413;47.680;9.166;2024-02-14T11:56:06;5.70;;;1.70;;
6751;SDS011;3413;47.680;9.166;2024-02-14T12:01:08;4.07;;;1.90;;
6751;SDS011;3413;47.680;9.166;2024-02-14T12:06:11;2.57;;;1.27;;
6751;SDS011;3413;47.680;9.166;2024-02-14T12:11:13;6.87;;;1.90;;
6751;SDS011;3413;47.680;9.166;2024-02-14T12:16:15;7.50;;;2.20;;
6751;SDS011;3413;47.680;9.166;2024-02-14T12:21:20;3.87;;;1.60;;
6751;SDS011;3413;47.680;9.166;2024-02-14T12:26:22;4.90;;;1.87;;
6751;SDS011;3413;47.680;9.166;2024-02-14T12:31:24;3.63;;;1.30;;
6751;SDS011;3413;47.680;9.166;2024-02-14T12:36:27;5.73;;;1.60;;
6751;SDS011;3413;47.680;9.166;2024-02-14T12:41:34;2.30;;;1.50;;
6751;SDS011;3413;47.680;9.166;2024-02-14T12:46:38;6.10;;;1.43;;
6751;SDS011;3413;47.680;9.166;2024-02-14T12:51:40;1.77;;;1.23;;
6751;SDS011;3413;47.680;9.166;2024-02-14T12:56:43;7.20;;;1.40;;
6751;SDS011;3413;47.680;9.166;2024-02-14T13:01:45;1.93;;;1.00;;
6751;SDS011;3413;47.680;9.166;2024-02-14T13:06:49;5.63;;;1.50;;
6751;SDS011;3413;47.680;9.166;2024-02-14T13:11:51;1.47;;;1.10;;
6751;SDS011;3413;47.680;9.166;2024-02-14T13:16:54;3.47;;;1.30;;
6751;SDS011;3413;47.680;9.166;2024-02-14T13:21:56;6.50;;;1.40;;
6751;SDS011;3413;47.680;9.166;2024-02-14T13:26:58;4.20;;;1.63;;
6751;SDS011;3413;47.680;9.166;2024-02-14T13:31:59;2.90;;;1.13;;
6751;SDS011;3413;47.680;9.166;2024-02-14T13:37:03;1.00;;;0.80;;
6751;SDS011;3413;47.680;9.166;2024-02-14T13:42:05;1.80;;;1.00;;
6751;SDS011;3413;47.680;9.166;2024-02-14T13:47:09;4.00;;;1.40;;
6751;SDS011;3413;47.680;9.166;2024-02-14T13:52:11;1.97;;;0.97;;
6751;SDS011;3413;47.680;9.166;2024-02-14T13:57:13;3.20;;;1.20;;
6751;SDS011;3413;47.680;9.166;2024-02-14T14:02:18;1.60;;;1.00;;
6751;SDS011;3413;47.680;9.166;2024-02-14T14:07:20;5.53;;;1.17;;
6751;SDS011;3413;47.680;9.166;2024-02-14T14:12:22;5.07;;;1.10;;
6751;SDS011;3413;47.680;9.166;2024-02-14T14:17:24;2.60;;;1.20;;
6751;SDS011;3413;47.680;9.166;2024-02-14T14:22:26;2.50;;;1.17;;
6751;SDS011;3413;47.680;9.166;2024-02-14T14:27:30;4.80;;;1.40;;
6751;SDS011;3413;47.680;9.166;2024-02-14T14:32:32;2.53;;;1.30;;
6751;SDS011;3413;47.680;9.166;2024-02-14T14:37:34;2.20;;;0.97;;
6751;SDS011;3413;47.680;9.166;2024-02-14T14:42:36;2.90;;;1.10;;
6751;SDS011;3413;47.680;9.166;2024-02-14T14:47:38;2.43;;;1.20;;
6751;SDS011;3413;47.680;9.166;2024-02-14T14:52:40;3.70;;;1.17;;
6751;SDS011;3413;47.680;9.166;2024-02-14T14:57:42;3.67;;;1.10;;
6751;SDS011;3413;47.680;9.166;2024-02-14T15:02:44;12.67;;;1.20;;
6751;SDS011;3413;47.680;9.166;2024-02-14T15:07:46;8.20;;;1.20;;
6751;SDS011;3413;47.680;9.166;2024-02-14T15:12:48;2.83;;;1.10;;
6751;SDS011;3413;47.680;9.166;2024-02-14T15:17:50;3.60;;;0.90;;
6751;SDS011;3413;47.680;9.166;2024-02-14T15:22:52;1.53;;;1.20;;
6751;SDS011;3413;47.680;9.166;2024-02-14T15:27:54;1.50;;;1.00;;
6751;SDS011;3413;47.680;9.166;2024-02-14T15:32:56;5.23;;;1.53;;
6751;SDS011;3413;47.680;9.166;2024-02-14T15:38:17;1.40;;;1.00;;
6751;SDS011;3413;47.680;9.166;2024-02-14T15:43:20;3.00;;;1.37;;
6751;SDS011;3413;47.680;9.166;2024-02-14T15:48:22;3.37;;;1.53;;
6751;SDS011;3413;47.680;9.166;2024-02-14T15:53:26;3.90;;;2.03;;
6751;SDS011;3413;47.680;9.166;2024-02-14T15:58:31;4.63;;;2.17;;
6751;SDS011;3413;47.680;9.166;2024-02-14T16:03:33;5.00;;;2.10;;
6751;SDS011;3413;47.680;9.166;2024-02-14T16:08:35;6.07;;;2.67;;
6751;SDS011;3413;47.680;9.166;2024-02-14T16:13:37;14.37;;;2.80;;
6751;SDS011;3413;47.680;9.166;2024-02-14T16:18:39;2.50;;;1.57;;
6751;SDS011;3413;47.680;9.166;2024-02-14T16:23:42;7.80;;;3.67;;
6751;SDS011;3413;47.680;9.166;2024-02-14T16:28:44;6.93;;;3.17;;
6751;SDS011;3413;47.680;9.166;2024-02-14T16:33:45;6.00;;;2.30;;
6751;SDS011;3413;47.680;9.166;2024-02-14T16:38:48;6.00;;;2.20;;
6751;SDS011;3413;47.680;9.166;2024-02-14T16:43:50;8.37;;;2.07;;
6751;SDS011;3413;47.680;9.166;2024-02-14T16:48:51;3.47;;;1.83;;
6751;SDS011;3413;47.680;9.166;2024-02-14T16:53:54;3.30;;;1.80;;
6751;SDS011;3413;47.680;9.166;2024-02-14T16:58:56;4.23;;;1.80;;
6751;SDS011;3413;47.680;9.166;2024-02-14T17:03:58;4.90;;;2.00;;
6751;SDS011;3413;47.680;9.166;2024-02-14T17:09:06;2.23;;;1.60;;
6751;SDS011;3413;47.680;9.166;2024-02-14T17:14:08;6.53;;;2.10;;
6751;SDS011;3413;47.680;9.166;2024-02-14T17:19:11;5.53;;;2.87;;
6751;SDS011;3413;47.680;9.166;2024-02-14T17:24:13;7.33;;;3.13;;
6751;SDS011;3413;47.680;9.166;2024-02-14T17:29:15;4.63;;;2.53;;
6751;SDS011;3413;47.680;9.166;2024-02-14T17:34:18;13.30;;;2.67;;
6751;SDS011;3413;47.680;9.166;2024-02-14T17:39:20;7.70;;;2.30;;
6751;SDS011;3413;47.680;9.166;2024-02-14T17:44:22;7.70;;;2.07;;
6751;SDS011;3413;47.680;9.166;2024-02-14T17:49:24;11.00;;;2.30;;
6751;SDS011;3413;47.680;9.166;2024-02-14T17:54:26;9.50;;;2.10;;
6751;SDS011;3413;47.680;9.166;2024-02-14T17:59:28;5.83;;;2.47;;
6751;SDS011;3413;47.680;9.166;2024-02-14T18:04:30;6.17;;;2.13;;
6751;SDS011;3413;47.680;9.166;2024-02-14T18:09:32;3.40;;;2.03;;
6751;SDS011;3413;47.680;9.166;2024-02-14T18:14:34;4.13;;;1.80;;
6751;SDS011;3413;47.680;9.166;2024-02-14T18:19:36;3.13;;;2.00;;
6751;SDS011;3413;47.680;9.166;2024-02-14T18:24:38;4.60;;;2.23;;
6751;SDS011;3413;47.680;9.166;2024-02-14T18:29:40;3.33;;;1.63;;
6751;SDS011;3413;47.680;9.166;2024-02-14T18:34:42;6.60;;;2.63;;
6751;SDS011;3413;47.680;9.166;2024-02-14T18:39:44;5.30;;;2.10;;
6751;SDS011;3413;47.680;9.166;2024-02-14T18:44:45;5.97;;;2.90;;
6751;SDS011;3413;47.680;9.166;2024-02-14T18:49:48;4.73;;;2.30;;
6751;SDS011;3413;47.680;9.166;2024-02-14T18:54:50;5.57;;;2.00;;
6751;SDS011;3413;47.680;9.166;2024-02-14T18:59:52;3.97;;;2.13;;
6751;SDS011;3413;47.680;9.166;2024-02-14T19:04:54;10.40;;;3.17;;
6751;SDS011;3413;47.680;9.166;2024-02-14T19:09:56;11.87;;;3.60;;
6751;SDS011;3413;47.680;9.166;2024-02-14T19:14:59;7.00;;;3.43;;
6751;SDS011;3413;47.680;9.166;2024-02-14T19:20:05;13.90;;;3.20;;
6751;SDS011;3413;47.680;9.166;2024-02-14T19:25:09;5.27;;;2.80;;
6751;SDS011;3413;47.680;9.166;2024-02-14T19:30:11;5.40;;;2.53;;
6751;SDS011;3413;47.680;9.166;2024-02-14T19:35:14;5.03;;;2.40;;
6751;SDS011;3413;47.680;9.166;2024-02-14T19:40:16;15.17;;;5.87;;
6751;SDS011;3413;47.680;9.166;2024-02-14T19:45:17;9.73;;;3.00;;
6751;SDS011;3413;47.680;9.166;2024-02-14T19:50:20;2.50;;;1.80;;
6751;SDS011;3413;47.680;9.166;2024-02-14T19:55:22;4.77;;;2.00;;
6751;SDS011;3413;47.680;9.166;2024-02-14T20:00:24;10.90;;;3.23;;
6751;SDS011;3413;47.680;9.166;2024-02-14T20:05:26;10.07;;;3.13;;
6751;SDS011;3413;47.680;9.166;2024-02-14T20:10:29;8.10;;;3.10;;
6751;SDS011;3413;47.680;9.166;2024-02-14T20:15:32;4.13;;;2.33;;
6751;SDS011;3413;47.680;9.166;2024-02-14T20:20:34;4.60;;;2.30;;
6751;SDS011;3413;47.680;9.166;2024-02-14T20:25:36;8.03;;;3.50;;
6751;SDS011;3413;47.680;9.166;2024-02-14T20:30:39;5.93;;;2.80;;
6751;SDS011;3413;47.680;9.166;2024-02-14T20:35:40;16.87;;;5.20;;
6751;SDS011;3413;47.680;9.166;2024-02-14T20:40:43;6.87;;;3.27;;
6751;SDS011;3413;47.680;9.166;2024-02-14T20:45:45;5.50;;;2.47;;
6751;SDS011;3413;47.680;9.166;2024-02-14T20:50:46;5.53;;;2.80;;
6751;SDS011;3413;47.680;9.166;2024-02-14T20:55:48;5.93;;;3.00;;
6751;SDS011;3413;47.680;9.166;2024-02-14T21:00:50;8.40;;;3.10;;
6751;SDS011;3413;47.680;9.166;2024-02-14T21:05:52;3.30;;;2.30;;
6751;SDS011;3413;47.680;9.166;2024-02-14T21:10:54;6.47;;;2.70;;
6751;SDS011;3413;47.680;9.166;2024-02-14T21:15:56;6.80;;;3.20;;
6751;SDS011;3413;47.680;9.166;2024-02-14T21:20:59;6.70;;;2.87;;
6751;SDS011;3413;47.680;9.166;2024-02-14T21:26:01;5.63;;;3.13;;
6751;SDS011;3413;47.680;9.166;2024-02-14T21:31:05;5.10;;;2.40;;
6751;SDS011;3413;47.680;9.166;2024-02-14T21:36:07;6.37;;;3.20;;
6751;SDS011;3413;47.680;9.166;2024-02-14T21:41:09;11.93;;;3.30;;
6751;SDS011;3413;47.680;9.166;2024-02-14T21:46:11;7.80;;;3.90;;
6751;SDS011;3413;47.680;9.166;2024-02-14T21:51:13;10.73;;;4.60;;
6751;SDS011;3413;47.680;9.166;2024-02-14T21:56:16;12.97;;;4.13;;
6751;SDS011;3413;47.680;9.166;2024-02-14T22:01:19;9.40;;;4.67;;
6751;SDS011;3413;47.680;9.166;2024-02-14T22:06:21;7.90;;;3.43;;
6751;SDS011;3413;47.680;9.166;2024-02-14T22:11:23;6.00;;;3.30;;
6751;SDS011;3413;47.680;9.166;2024-02-14T22:16:26;9.17;;;4.63;;
6751;SDS011;3413;47.680;9.166;2024-02-14T22:21:28;18.13;;;5.77;;
6751;SDS011;3413;47.680;9.166;2024-02-14T22:26:30;7.90;;;4.50;;
6751;SDS011;3413;47.680;9.166;2024-02-14T22:31:33;15.93;;;5.33;;
6751;SDS011;3413;47.680;9.166;2024-02-14T22:36:35;10.53;;;5.03;;
6751;SDS011;3413;47.680;9.166;2024-02-14T22:41:40;10.80;;;5.00;;
6751;SDS011;3413;47.680;9.166;2024-02-14T22:46:43;14.03;;;5.57;;
6751;SDS011;3413;47.680;9.166;2024-02-14T22:51:46;11.30;;;5.70;;
6751;SDS011;3413;47.680;9.166;2024-02-14T22:56:48;8.30;;;3.80;;
6751;SDS011;3413;47.680;9.166;2024-02-14T23:01:50;6.43;;;3.00;;
6751;SDS011;3413;47.680;9.166;2024-02-14T23:06:53;10.70;;;3.10;;
6751;SDS011;3413;47.680;9.166;2024-02-14T23:11:55;11.63;;;3.30;;
6751;SDS011;3413;47.680;9.166;2024-02-14T23:16:57;6.10;;;2.77;;
6751;SDS011;3413;47.680;9.166;2024-02-14T23:21:59;6.10;;;2.97;;
6751;SDS011;3413;47.680;9.166;2024-02-14T23:27:01;6.83;;;2.90;;
6751;SDS011;3413;47.680;9.166;2024-02-14T23:32:03;8.90;;;2.80;;
6751;SDS011;3413;47.680;9.166;2024-02-14T23:37:05;6.70;;;3.00;;
6751;SDS011;3413;47.680;9.166;2024-02-14T23:42:07;7.37;;;3.17;;
6751;SDS011;3413;47.680;9.166;2024-02-14T23:47:10;5.50;;;3.10;;
6751;SDS011;3413;47.680;9.166;2024-02-14T23:52:13;11.20;;;4.00;;
6751;SDS011;3413;47.680;9.166;2024-02-14T23:57:15;9.33;;;2.90;;
